Time;durP1;ratioP1;P1;durP2;ratioP2;P2;SDS_P1;SDS_P2;PMS_P1;PMS_P2;Temp;Humidity;BMP_temperature;BMP_pressure;BME280_temperature;BME280_humidity;BME280_pressure;Samples;Min_cycle;Max_cycle;Signal;HPM_P1;HPM_P2
2024/01/10 00:00:12;;;;;;;;;;;-3.20;65.20;;;;;;5114268;28;20348;-74
2024/01/10 00:02:37;;;;;;;;;;;-3.20;64.80;;;;;;5114517;28;19959;-76
2024/01/10 00:05:03;;;;;;;;;;;-3.20;65.00;;;;;;5133207;28;19915;-76
2024/01/10 00:07:29;;;;;;;;;;;-3.20;65.30;;;;;;5114738;28;19907;-75
2024/01/10 00:09:55;;;;;;;;;;;-3.10;65.20;;;;;;5114655;28;19907;-76
2024/01/10 00:12:21;;;;;;;;;;;-3.20;65.10;;;;;;5133376;28;19911;-76
2024/01/10 00:14:46;;;;;;;;;;;-3.20;65.70;;;;;;5115051;28;19907;-76
2024/01/10 00:17:12;;;;;;;;;;;-3.30;66.00;;;;;;5128402;28;19912;-76
2024/01/10 00:19:37;;;;;;;;;;;-3.30;65.50;;;;;;5114570;28;20350;-76
2024/01/10 00:22:03;;;;;;;;;;;-3.40;65.80;;;;;;5134778;27;20544;-76
2024/01/10 00:24:28;;;;;;;;;;;-3.40;66.60;;;;;;5118021;27;19998;-75
2024/01/10 00:26:55;;;;;;;;;;;-3.40;66.90;;;;;;5118491;27;19968;-75
2024/01/10 00:29:20;;;;;;;;;;;-3.40;67.30;;;;;;5136896;27;19914;-76
2024/01/10 00:31:46;;;;;;;;;;;-3.40;67.20;;;;;;5118171;27;19908;-75
2024/01/10 00:34:11;;;;;;;;;;;-3.40;67.20;;;;;;5136031;27;19918;-76
2024/01/10 00:36:37;;;;;;;;;;;-3.40;67.30;;;;;;5118156;27;19933;-75
2024/01/10 00:39:02;;;;;;;;;;;-3.40;67.60;;;;;;5135976;27;20272;-75
2024/01/10 00:41:28;;;;;;;;;;;-3.50;68.00;;;;;;5117828;27;19907;-76
2024/01/10 00:43:53;;;;;;;;;;;-3.60;68.40;;;;;;5135978;27;19908;-76
2024/01/10 00:46:19;;;;;;;;;;;-3.60;68.70;;;;;;5118081;27;19907;-75
2024/01/10 00:48:44;;;;;;;;;;;-3.60;68.30;;;;;;5117727;27;19931;-75
2024/01/10 00:51:10;;;;;;;;;;;-3.60;68.10;;;;;;5135877;27;20295;-76
2024/01/10 00:53:38;;;;;;;;;;;-3.70;67.90;;;;;;5117316;27;19907;-76
2024/01/10 00:56:05;;;;;;;;;;;-3.70;67.80;;;;;;5117797;27;19923;-75
2024/01/10 00:58:30;;;;;;;;;;;-3.70;68.60;;;;;;5135600;27;19991;-76
2024/01/10 01:00:56;;;;;;;;;;;-3.70;69.20;;;;;;5116804;27;20002;-75
2024/01/10 01:03:22;;;;;;;;;;;-3.60;68.90;;;;;;5136113;27;19955;-75
2024/01/10 01:05:48;;;;;;;;;;;-3.60;68.50;;;;;;5136012;27;19930;-75
2024/01/10 01:08:14;;;;;;;;;;;-3.70;68.60;;;;;;5116853;27;19972;-75
2024/01/10 01:10:40;;;;;;;;;;;-3.70;68.50;;;;;;5135970;27;19911;-75
2024/01/10 01:13:06;;;;;;;;;;;-3.70;68.60;;;;;;5136389;27;20334;-76
2024/01/10 01:15:32;;;;;;;;;;;-3.70;68.00;;;;;;5136377;27;19911;-75
2024/01/10 01:17:58;;;;;;;;;;;-3.70;67.20;;;;;;5132596;27;20283;-76
2024/01/10 01:20:24;;;;;;;;;;;-3.70;67.00;;;;;;5116109;27;19945;-76
2024/01/10 01:22:49;;;;;;;;;;;-3.70;66.60;;;;;;5117517;27;19912;-76
2024/01/10 01:25:15;;;;;;;;;;;-3.70;67.60;;;;;;5117779;27;19954;-76
2024/01/10 01:27:41;;;;;;;;;;;-3.70;67.50;;;;;;5117757;27;19950;-76
2024/01/10 01:30:06;;;;;;;;;;;-3.70;67.50;;;;;;5118789;27;20428;-76
2024/01/10 01:32:32;;;;;;;;;;;-3.60;67.60;;;;;;5118143;27;19908;-75
2024/01/10 01:34:58;;;;;;;;;;;-3.70;68.00;;;;;;5134750;27;20339;-76
2024/01/10 01:37:24;;;;;;;;;;;-3.70;68.60;;;;;;5135390;27;20367;-77
2024/01/10 01:39:50;;;;;;;;;;;-3.70;68.90;;;;;;5112621;28;19954;-75
2024/01/10 01:42:16;;;;;;;;;;;-3.70;68.70;;;;;;5112769;28;19922;-75
2024/01/10 01:44:42;;;;;;;;;;;-3.70;68.20;;;;;;5114136;28;19923;-75
2024/01/10 01:47:08;;;;;;;;;;;-3.70;68.40;;;;;;5112747;28;19908;-75
2024/01/10 01:49:34;;;;;;;;;;;-3.80;68.70;;;;;;5112950;28;20030;-75
2024/01/10 01:52:00;;;;;;;;;;;-3.80;68.90;;;;;;5112736;28;20006;-76
2024/01/10 01:54:26;;;;;;;;;;;-3.80;69.10;;;;;;5112561;28;19907;-75
2024/01/10 01:56:52;;;;;;;;;;;-3.90;69.10;;;;;;5112723;28;19929;-75
2024/01/10 01:59:19;;;;;;;;;;;-3.90;69.40;;;;;;5113971;28;20024;-75
2024/01/10 02:01:44;;;;;;;;;;;-3.90;69.40;;;;;;5112955;28;20296;-75
2024/01/10 02:04:10;;;;;;;;;;;-3.90;69.00;;;;;;5113142;28;19908;-76
2024/01/10 02:06:35;;;;;;;;;;;-3.90;69.50;;;;;;5112920;28;19911;-76
2024/01/10 02:09:01;;;;;;;;;;;-3.90;69.80;;;;;;5112857;28;20322;-76
2024/01/10 02:11:26;;;;;;;;;;;-3.70;68.00;;;;;;5113471;28;20468;-76
2024/01/10 02:13:54;;;;;;;;;;;-3.60;67.30;;;;;;5113084;28;20314;-76
2024/01/10 02:16:20;;;;;;;;;;;-3.70;68.40;;;;;;5113735;28;19908;-75
2024/01/10 02:18:46;;;;;;;;;;;-3.80;70.10;;;;;;5113356;28;19971;-75
2024/01/10 02:21:11;;;;;;;;;;;-4.00;70.30;;;;;;5112413;28;20387;-76
2024/01/10 02:23:37;;;;;;;;;;;-4.00;70.80;;;;;;5114061;28;19907;-75
2024/01/10 02:26:02;;;;;;;;;;;-4.10;71.30;;;;;;5107316;28;20248;-75
2024/01/10 02:28:28;;;;;;;;;;;-4.00;71.20;;;;;;5113600;28;20376;-75
2024/01/10 02:30:54;;;;;;;;;;;-4.00;70.80;;;;;;5112110;28;19916;-75
2024/01/10 02:33:20;;;;;;;;;;;-4.10;71.50;;;;;;5111782;28;20406;-76
2024/01/10 02:35:45;;;;;;;;;;;-4.10;71.60;;;;;;5111833;28;19968;-76
2024/01/10 02:38:11;;;;;;;;;;;-4.10;71.70;;;;;;5113294;27;19908;-76
2024/01/10 02:40:36;;;;;;;;;;;-4.00;71.10;;;;;;5114864;27;19922;-76
2024/01/10 02:43:02;;;;;;;;;;;-4.00;71.00;;;;;;5133458;27;19907;-75
2024/01/10 02:45:27;;;;;;;;;;;-4.00;70.80;;;;;;5114697;27;19907;-76
2024/01/10 02:47:53;;;;;;;;;;;-4.00;70.90;;;;;;5133301;27;19911;-76
2024/01/10 02:50:19;;;;;;;;;;;-4.00;71.50;;;;;;5133474;27;19943;-75
2024/01/10 02:52:44;;;;;;;;;;;-4.10;71.90;;;;;;5115090;27;19952;-76
2024/01/10 02:55:10;;;;;;;;;;;-4.10;72.70;;;;;;5133179;27;19907;-75
2024/01/10 02:57:35;;;;;;;;;;;-4.10;73.00;;;;;;5133172;27;19907;-74
2024/01/10 03:00:01;;;;;;;;;;;-4.10;72.20;;;;;;5114744;27;19922;-75
2024/01/10 03:02:26;;;;;;;;;;;-4.00;71.50;;;;;;5114505;27;19972;-75
2024/01/10 03:04:51;;;;;;;;;;;-4.00;71.70;;;;;;5133048;27;19994;-75
2024/01/10 03:07:17;;;;;;;;;;;-3.90;71.00;;;;;;5133363;27;20010;-75
2024/01/10 03:09:43;;;;;;;;;;;-4.00;71.20;;;;;;5114658;27;20440;-75
2024/01/10 03:12:09;;;;;;;;;;;-4.00;71.50;;;;;;5114667;27;20427;-75
2024/01/10 03:14:35;;;;;;;;;;;-4.30;71.50;;;;;;5114903;27;19931;-75
2024/01/10 03:17:00;;;;;;;;;;;-4.20;72.10;;;;;;5114487;27;20376;-76
2024/01/10 03:19:25;;;;;;;;;;;-4.20;71.30;;;;;;5114062;27;19922;-76
2024/01/10 03:21:51;;;;;;;;;;;-4.30;70.90;;;;;;5133038;27;19912;-76
2024/01/10 03:24:17;;;;;;;;;;;-4.40;71.70;;;;;;5114636;27;19995;-74
2024/01/10 03:26:42;;;;;;;;;;;-4.30;71.60;;;;;;5132345;27;20096;-75
2024/01/10 03:29:08;;;;;;;;;;;-4.40;71.70;;;;;;5114627;27;19908;-75
2024/01/10 03:31:33;;;;;;;;;;;-4.40;71.90;;;;;;5114857;27;19915;-75
2024/01/10 03:33:59;;;;;;;;;;;-4.50;73.80;;;;;;5132752;27;20395;-75
2024/01/10 03:36:25;;;;;;;;;;;-4.50;76.00;;;;;;5132923;27;20381;-75
2024/01/10 03:38:50;;;;;;;;;;;-4.60;78.50;;;;;;5132509;27;19944;-75
2024/01/10 03:41:16;;;;;;;;;;;-4.60;77.20;;;;;;5114521;28;19918;-74
2024/01/10 03:43:42;;;;;;;;;;;-4.70;77.90;;;;;;5132836;28;19908;-75
2024/01/10 03:46:08;;;;;;;;;;;-4.70;78.00;;;;;;5114475;28;19908;-75
2024/01/10 03:48:34;;;;;;;;;;;-4.70;77.50;;;;;;5132922;28;19934;-75
2024/01/10 03:50:59;;;;;;;;;;;-4.50;76.60;;;;;;5132719;28;20431;-75
2024/01/10 03:53:25;;;;;;;;;;;-4.50;75.80;;;;;;5132895;28;20455;-75
2024/01/10 03:55:50;;;;;;;;;;;-4.50;75.40;;;;;;5135038;27;19907;-75
2024/01/10 03:58:16;;;;;;;;;;;-4.50;75.70;;;;;;5118375;27;20033;-75
2024/01/10 04:00:41;;;;;;;;;;;-4.50;75.70;;;;;;5118285;27;19935;-75
2024/01/10 04:03:07;;;;;;;;;;;-4.40;74.60;;;;;;5137116;27;19913;-75
2024/01/10 04:05:32;;;;;;;;;;;-4.40;74.20;;;;;;5118386;27;20298;-75
2024/01/10 04:07:58;;;;;;;;;;;-4.50;74.50;;;;;;5136883;27;19919;-75
2024/01/10 04:10:23;;;;;;;;;;;-4.50;75.30;;;;;;5119226;27;19989;-75
2024/01/10 04:12:49;;;;;;;;;;;-4.60;76.00;;;;;;5118563;27;19911;-75
2024/01/10 04:15:15;;;;;;;;;;;-4.70;76.30;;;;;;5136930;27;19908;-75
2024/01/10 04:17:40;;;;;;;;;;;-4.70;76.20;;;;;;5118156;27;19912;-74
2024/01/10 04:20:06;;;;;;;;;;;-4.70;76.60;;;;;;5118029;27;20014;-75
2024/01/10 04:22:32;;;;;;;;;;;-4.60;76.70;;;;;;5117404;27;19964;-75
2024/01/10 04:24:58;;;;;;;;;;;-4.60;75.70;;;;;;5118299;27;19915;-74
2024/01/10 04:27:23;;;;;;;;;;;-4.60;75.40;;;;;;5136375;27;19976;-76
2024/01/10 04:29:49;;;;;;;;;;;-4.70;74.90;;;;;;5136394;27;19908;-76
2024/01/10 04:32:14;;;;;;;;;;;-4.70;75.00;;;;;;5118335;27;19911;-76
2024/01/10 04:34:40;;;;;;;;;;;-4.70;75.50;;;;;;5136635;27;19908;-75
2024/01/10 04:37:06;;;;;;;;;;;-4.60;75.80;;;;;;5118020;27;19914;-75
2024/01/10 04:39:32;;;;;;;;;;;-4.60;75.90;;;;;;5135729;27;19919;-75
2024/01/10 04:41:58;;;;;;;;;;;-4.60;76.10;;;;;;5117938;27;19932;-75
2024/01/10 04:44:24;;;;;;;;;;;-4.60;76.30;;;;;;5117808;27;20304;-76
2024/01/10 04:46:49;;;;;;;;;;;-4.50;76.30;;;;;;5136533;27;19911;-75
2024/01/10 04:49:15;;;;;;;;;;;-4.50;76.00;;;;;;5117907;27;19911;-75
2024/01/10 04:51:40;;;;;;;;;;;-4.60;75.60;;;;;;5117131;27;19914;-75
2024/01/10 04:54:06;;;;;;;;;;;-4.60;75.40;;;;;;5135575;27;19911;-74
2024/01/10 04:56:31;;;;;;;;;;;-4.70;75.80;;;;;;5135641;27;20485;-75
2024/01/10 04:58:57;;;;;;;;;;;-4.60;75.90;;;;;;5117107;27;19919;-75
2024/01/10 05:01:23;;;;;;;;;;;-4.60;75.60;;;;;;5135671;27;19943;-75
2024/01/10 05:03:48;;;;;;;;;;;-4.60;76.30;;;;;;5135676;27;19911;-75
2024/01/10 05:06:14;;;;;;;;;;;-4.80;76.50;;;;;;5116867;27;19907;-75
2024/01/10 05:08:40;;;;;;;;;;;-4.80;77.00;;;;;;5134945;27;19907;-75
2024/01/10 05:11:05;;;;;;;;;;;-4.80;77.50;;;;;;5116548;27;20341;-75
2024/01/10 05:13:31;;;;;;;;;;;-4.80;77.50;;;;;;5135600;27;20367;-76
2024/01/10 05:15:56;;;;;;;;;;;-5.00;79.10;;;;;;5135348;27;19950;-75
2024/01/10 05:18:22;;;;;;;;;;;-5.00;79.40;;;;;;5117066;27;20291;-75
2024/01/10 05:20:47;;;;;;;;;;;-4.90;79.20;;;;;;5135423;27;19915;-75
2024/01/10 05:23:13;;;;;;;;;;;-4.80;79.50;;;;;;5116801;27;19912;-75
2024/01/10 05:25:38;;;;;;;;;;;-5.00;79.80;;;;;;5116802;27;19930;-74
2024/01/10 05:28:04;;;;;;;;;;;-4.80;79.50;;;;;;5116727;27;19952;-75
2024/01/10 05:30:30;;;;;;;;;;;-4.80;79.00;;;;;;5116779;27;19907;-75
2024/01/10 05:32:55;;;;;;;;;;;-4.80;78.60;;;;;;5134961;27;19908;-75
2024/01/10 05:35:21;;;;;;;;;;;-4.80;78.10;;;;;;5134974;27;19911;-75
2024/01/10 05:37:47;;;;;;;;;;;-4.90;78.40;;;;;;5134878;27;19907;-75
2024/01/10 05:40:12;;;;;;;;;;;-4.80;78.40;;;;;;5134653;27;19931;-75
2024/01/10 05:42:38;;;;;;;;;;;-4.80;78.20;;;;;;5134464;27;19908;-76
2024/01/10 05:45:04;;;;;;;;;;;-5.00;77.90;;;;;;5134969;27;19916;-76
2024/01/10 05:47:29;;;;;;;;;;;-5.00;78.50;;;;;;5116141;27;19960;-75
2024/01/10 05:49:55;;;;;;;;;;;-5.00;79.10;;;;;;5116609;27;19915;-75
2024/01/10 05:52:22;;;;;;;;;;;-5.00;78.00;;;;;;5134682;27;19914;-75
2024/01/10 05:54:48;;;;;;;;;;;-5.10;78.00;;;;;;5116140;27;19956;-75
2024/01/10 05:57:13;;;;;;;;;;;-5.10;77.90;;;;;;5116683;27;19915;-75
2024/01/10 05:59:39;;;;;;;;;;;-5.10;77.70;;;;;;5116081;27;19915;-75
2024/01/10 06:02:05;;;;;;;;;;;-5.00;77.60;;;;;;5116080;27;19914;-75
2024/01/10 06:04:31;;;;;;;;;;;-5.10;78.00;;;;;;5134584;27;19907;-75
2024/01/10 06:07:00;;;;;;;;;;;-5.20;78.60;;;;;;5115810;27;19915;-75
2024/01/10 06:09:26;;;;;;;;;;;-5.30;78.80;;;;;;5115942;27;19911;-75
2024/01/10 06:11:51;;;;;;;;;;;-5.10;79.10;;;;;;5134258;27;19907;-75
2024/01/10 06:14:17;;;;;;;;;;;-5.20;78.90;;;;;;5115826;27;19911;-75
2024/01/10 06:16:43;;;;;;;;;;;-5.20;79.50;;;;;;5115882;27;19961;-75
2024/01/10 06:19:10;;;;;;;;;;;-5.20;79.60;;;;;;5132936;27;19916;-75
2024/01/10 06:21:36;;;;;;;;;;;-5.20;79.80;;;;;;5115934;27;19973;-75
2024/01/10 06:24:01;;;;;;;;;;;-5.20;80.00;;;;;;5134313;27;20315;-75
2024/01/10 06:26:28;;;;;;;;;;;-5.20;80.50;;;;;;5115711;27;20048;-75
2024/01/10 06:28:53;;;;;;;;;;;-5.20;80.60;;;;;;5116045;27;20022;-75
2024/01/10 06:31:20;;;;;;;;;;;-5.20;81.10;;;;;;5115594;27;19915;-75
2024/01/10 06:33:45;;;;;;;;;;;-5.20;80.70;;;;;;5134149;27;19907;-75
2024/01/10 06:36:11;;;;;;;;;;;-5.30;81.10;;;;;;5134273;27;19911;-75
2024/01/10 06:38:38;;;;;;;;;;;-5.20;81.30;;;;;;5111796;28;19920;-75
2024/01/10 06:41:07;;;;;;;;;;;-5.30;81.80;;;;;;5112756;28;19955;-76
2024/01/10 06:43:34;;;;;;;;;;;-5.30;82.20;;;;;;5111930;28;19911;-75
2024/01/10 06:46:00;;;;;;;;;;;-5.20;82.20;;;;;;5113134;28;19916;-75
2024/01/10 06:48:25;;;;;;;;;;;-5.10;81.60;;;;;;5111273;28;19914;-75
2024/01/10 06:50:50;;;;;;;;;;;-5.20;81.20;;;;;;5112787;28;20007;-74
2024/01/10 06:53:16;;;;;;;;;;;-5.20;81.70;;;;;;5111711;28;20272;-75
2024/01/10 06:55:41;;;;;;;;;;;-5.20;82.20;;;;;;5112761;28;19907;-75
2024/01/10 06:58:07;;;;;;;;;;;-5.10;81.80;;;;;;5111264;28;19908;-75
2024/01/10 07:00:33;;;;;;;;;;;-5.00;81.20;;;;;;5112851;28;19945;-75
2024/01/10 07:03:01;;;;;;;;;;;-4.90;80.70;;;;;;5113008;28;20391;-75
2024/01/10 07:05:28;;;;;;;;;;;-4.90;80.70;;;;;;5111471;28;19937;-75
2024/01/10 07:07:53;;;;;;;;;;;-4.80;80.40;;;;;;5111459;28;20135;-75
2024/01/10 07:10:19;;;;;;;;;;;-4.80;80.10;;;;;;5111559;28;20326;-75
2024/01/10 07:12:44;;;;;;;;;;;-4.70;79.80;;;;;;5111208;28;19918;-75
2024/01/10 07:15:11;;;;;;;;;;;-4.70;79.50;;;;;;5112944;28;20325;-75
2024/01/10 07:17:37;;;;;;;;;;;-4.70;79.50;;;;;;5111331;28;19908;-75
2024/01/10 07:20:03;;;;;;;;;;;-4.50;79.90;;;;;;5112772;28;19964;-75
2024/01/10 07:22:28;;;;;;;;;;;-4.40;80.80;;;;;;5111572;28;19994;-75
2024/01/10 07:24:54;;;;;;;;;;;-4.20;80.80;;;;;;5111237;28;20000;-76
2024/01/10 07:27:19;;;;;;;;;;;-3.60;80.60;;;;;;5112725;28;19915;-76
2024/01/10 07:29:45;;;;;;;;;;;-3.20;79.70;;;;;;5112208;28;19912;-75
2024/01/10 07:32:11;;;;;;;;;;;-2.60;78.40;;;;;;5111472;28;19947;-75
2024/01/10 07:34:37;;;;;;;;;;;-2.30;77.30;;;;;;5112133;28;19943;-75
2024/01/10 07:37:03;;;;;;;;;;;-1.90;75.80;;;;;;5111193;28;19908;-75
2024/01/10 07:39:28;;;;;;;;;;;-1.60;73.10;;;;;;5110621;28;20392;-75
2024/01/10 07:41:56;;;;;;;;;;;-1.60;71.80;;;;;;5112010;28;20189;-76
2024/01/10 07:44:22;;;;;;;;;;;-1.70;73.20;;;;;;5113625;28;19938;-75
2024/01/10 07:46:47;;;;;;;;;;;-1.60;73.80;;;;;;5113169;28;19951;-75
2024/01/10 07:49:13;;;;;;;;;;;-1.20;72.40;;;;;;5111873;28;20253;-76
2024/01/10 07:51:38;;;;;;;;;;;-1.10;71.70;;;;;;5112475;28;20318;-75
2024/01/10 07:54:04;;;;;;;;;;;-1.20;72.30;;;;;;5113187;28;20323;-75
2024/01/10 07:56:30;;;;;;;;;;;-1.10;71.40;;;;;;5113644;28;19915;-75
2024/01/10 07:58:56;;;;;;;;;;;-0.80;72.00;;;;;;5111909;28;19931;-75
2024/01/10 08:01:21;;;;;;;;;;;-0.70;69.50;;;;;;5112448;28;19912;-75
2024/01/10 08:03:47;;;;;;;;;;;-0.40;71.80;;;;;;5112694;28;19908;-76
2024/01/10 08:06:13;;;;;;;;;;;-0.10;70.70;;;;;;5113823;28;20265;-75
2024/01/10 08:08:39;;;;;;;;;;;0.50;66.80;;;;;;5112982;28;19908;-76
2024/01/10 08:11:05;;;;;;;;;;;1.00;66.30;;;;;;5114486;28;20002;-75
2024/01/10 08:13:30;;;;;;;;;;;1.40;63.20;;;;;;5112430;28;20261;-75
2024/01/10 08:15:56;;;;;;;;;;;1.90;63.70;;;;;;5111604;28;19915;-76
2024/01/10 08:18:21;;;;;;;;;;;2.50;61.60;;;;;;5112934;28;19919;-75
2024/01/10 08:20:48;;;;;;;;;;;2.90;60.00;;;;;;5112194;28;19916;-76
2024/01/10 08:23:14;;;;;;;;;;;3.20;58.20;;;;;;5112326;28;19923;-75
2024/01/10 08:25:40;;;;;;;;;;;3.60;57.60;;;;;;5111940;28;19909;-75
2024/01/10 08:28:06;;;;;;;;;;;3.80;51.10;;;;;;5113376;28;19953;-75
2024/01/10 08:30:32;;;;;;;;;;;3.90;53.70;;;;;;5111745;28;19912;-76
2024/01/10 08:32:57;;;;;;;;;;;3.80;49.80;;;;;;5112976;28;20528;-75
2024/01/10 08:35:23;;;;;;;;;;;3.20;45.30;;;;;;5111877;28;19912;-75
2024/01/10 08:37:49;;;;;;;;;;;2.40;45.90;;;;;;5113289;28;20218;-75
2024/01/10 08:40:15;;;;;;;;;;;2.00;47.80;;;;;;5111378;28;19951;-76
2024/01/10 08:42:42;;;;;;;;;;;1.70;49.40;;;;;;5113705;28;19911;-76
2024/01/10 08:45:09;;;;;;;;;;;1.70;50.50;;;;;;5117680;28;19915;-76
2024/01/10 08:47:35;;;;;;;;;;;1.40;50.70;;;;;;5116931;28;20460;-77
2024/01/10 08:50:01;;;;;;;;;;;1.30;50.80;;;;;;5117174;28;19908;-75
2024/01/10 08:52:27;;;;;;;;;;;1.20;51.20;;;;;;5114112;28;20044;-75
2024/01/10 08:54:52;;;;;;;;;;;1.10;50.50;;;;;;5114673;28;19969;-76
2024/01/10 08:57:18;;;;;;;;;;;1.20;50.70;;;;;;5114404;28;19989;-75
2024/01/10 08:59:43;;;;;;;;;;;1.10;50.10;;;;;;5114083;28;19924;-75
2024/01/10 09:02:09;;;;;;;;;;;1.10;50.30;;;;;;5114396;28;20364;-74
2024/01/10 09:04:34;;;;;;;;;;;1.00;51.30;;;;;;5115878;28;19953;-75
2024/01/10 09:07:00;;;;;;;;;;;1.00;51.50;;;;;;5115856;28;19908;-75
2024/01/10 09:09:25;;;;;;;;;;;1.00;51.30;;;;;;5114136;28;19912;-75
2024/01/10 09:11:51;;;;;;;;;;;1.00;51.40;;;;;;5115705;28;19953;-75
2024/01/10 09:14:17;;;;;;;;;;;1.00;51.00;;;;;;5115786;28;19908;-77
2024/01/10 09:16:42;;;;;;;;;;;1.00;51.00;;;;;;5114152;28;19911;-76
2024/01/10 09:19:09;;;;;;;;;;;1.00;50.20;;;;;;5113533;28;19926;-75
2024/01/10 09:21:35;;;;;;;;;;;1.00;49.90;;;;;;5114150;28;19908;-76
2024/01/10 09:24:00;;;;;;;;;;;1.00;49.30;;;;;;5113996;28;19961;-75
2024/01/10 09:26:26;;;;;;;;;;;1.00;49.50;;;;;;5115790;28;19912;-76
2024/01/10 09:28:51;;;;;;;;;;;1.00;49.20;;;;;;5115835;28;19927;-76
2024/01/10 09:31:17;;;;;;;;;;;1.00;49.30;;;;;;5114288;28;20523;-75
2024/01/10 09:33:43;;;;;;;;;;;1.00;49.30;;;;;;5114732;28;19907;-75
2024/01/10 09:36:08;;;;;;;;;;;0.90;49.30;;;;;;5114112;28;19989;-76
2024/01/10 09:38:37;;;;;;;;;;;0.80;49.80;;;;;;5114718;28;19916;-75
2024/01/10 09:41:03;;;;;;;;;;;0.80;50.40;;;;;;5114593;28;20534;-75
2024/01/10 09:43:35;;;;;;;;;;;0.80;50.30;;;;;;5114246;28;20024;-75
2024/01/10 09:46:02;;;;;;;;;;;0.80;50.30;;;;;;5115290;28;19912;-75
2024/01/10 09:48:27;;;;;;;;;;;0.80;50.00;;;;;;5115817;28;19915;-75
2024/01/10 09:50:53;;;;;;;;;;;0.80;50.00;;;;;;5114469;28;19951;-76
2024/01/10 09:53:26;;;;;;;;;;;0.80;49.40;;;;;;5115480;28;19907;-75
2024/01/10 09:55:52;;;;;;;;;;;0.80;50.20;;;;;;5116031;28;19912;-76
2024/01/10 09:58:18;;;;;;;;;;;0.90;50.50;;;;;;5115762;28;19961;-76
2024/01/10 10:00:43;;;;;;;;;;;0.80;51.60;;;;;;5116059;28;19920;-75
2024/01/10 10:03:12;;;;;;;;;;;0.90;51.00;;;;;;5115576;28;19912;-75
2024/01/10 10:05:39;;;;;;;;;;;0.90;50.80;;;;;;5115558;28;19933;-75
2024/01/10 10:08:09;;;;;;;;;;;0.90;51.00;;;;;;5114204;28;19951;-76
2024/01/10 10:10:36;;;;;;;;;;;0.90;51.50;;;;;;5115950;28;19913;-75
2024/01/10 10:13:02;;;;;;;;;;;0.90;51.50;;;;;;5115547;28;19990;-76
2024/01/10 10:15:27;;;;;;;;;;;0.90;51.30;;;;;;5114347;28;19911;-74
2024/01/10 10:17:53;;;;;;;;;;;1.00;50.10;;;;;;5114689;28;20120;-75
2024/01/10 10:20:23;;;;;;;;;;;1.00;50.20;;;;;;5114728;28;20399;-76
2024/01/10 10:23:06;;;;;;;;;;;0.90;50.00;;;;;;5113325;28;20057;-76
2024/01/10 10:25:35;;;;;;;;;;;0.90;49.40;;;;;;5114981;28;20341;-75
2024/01/10 10:28:02;;;;;;;;;;;0.90;49.70;;;;;;5115139;28;20373;-76
2024/01/10 10:30:28;;;;;;;;;;;0.90;50.10;;;;;;5114316;28;19915;-76
2024/01/10 10:32:57;;;;;;;;;;;1.00;50.20;;;;;;5114331;28;20380;-76
2024/01/10 10:35:23;;;;;;;;;;;1.00;49.60;;;;;;5116397;28;19931;-76
2024/01/10 10:37:52;;;;;;;;;;;1.10;49.10;;;;;;5114762;28;20641;-76
2024/01/10 10:40:18;;;;;;;;;;;1.10;49.20;;;;;;5114663;28;20003;-76
2024/01/10 10:42:45;;;;;;;;;;;1.10;49.10;;;;;;5116453;28;19947;-76
2024/01/10 10:45:14;;;;;;;;;;;1.10;48.80;;;;;;5113493;28;20002;-75
2024/01/10 10:47:43;;;;;;;;;;;1.10;49.00;;;;;;5113316;28;19907;-76
2024/01/10 10:50:13;;;;;;;;;;;1.10;49.20;;;;;;5115127;28;19907;-76
2024/01/10 10:52:41;;;;;;;;;;;1.10;49.50;;;;;;5114121;28;19922;-76
2024/01/10 10:55:07;;;;;;;;;;;1.10;49.40;;;;;;5113992;28;19908;-76
2024/01/10 10:57:32;;;;;;;;;;;1.20;49.10;;;;;;5113362;28;19976;-75
2024/01/10 10:59:59;;;;;;;;;;;1.10;49.40;;;;;;5114626;28;20428;-75
2024/01/10 11:02:26;;;;;;;;;;;1.20;49.30;;;;;;5113609;28;19979;-75
2024/01/10 11:04:53;;;;;;;;;;;1.10;49.10;;;;;;5113411;28;19951;-76
2024/01/10 11:07:20;;;;;;;;;;;1.20;48.60;;;;;;5113740;28;20319;-75
2024/01/10 11:09:46;;;;;;;;;;;1.20;48.70;;;;;;5115485;28;20002;-76
2024/01/10 11:12:20;;;;;;;;;;;1.10;48.70;;;;;;5113959;28;19912;-76
2024/01/10 11:14:52;;;;;;;;;;;1.20;48.20;;;;;;5112768;28;19908;-75
2024/01/10 11:17:18;;;;;;;;;;;1.20;48.10;;;;;;5111703;28;19965;-75
2024/01/10 11:19:43;;;;;;;;;;;1.30;47.20;;;;;;5112275;28;19912;-75
2024/01/10 11:22:28;;;;;;;;;;;1.30;46.90;;;;;;5112270;28;19908;-75
2024/01/10 11:24:53;;;;;;;;;;;1.30;46.20;;;;;;5111390;28;20368;-75
2024/01/10 11:27:19;;;;;;;;;;;1.40;46.30;;;;;;5111678;28;19915;-75
2024/01/10 11:29:46;;;;;;;;;;;1.30;46.90;;;;;;5111637;28;19943;-76
2024/01/10 11:32:15;;;;;;;;;;;1.30;46.90;;;;;;5111582;28;20006;-76
2024/01/10 11:34:53;;;;;;;;;;;1.40;46.50;;;;;;5111567;28;20003;-75
2024/01/10 11:37:18;;;;;;;;;;;1.30;46.50;;;;;;5111307;28;19911;-76
2024/01/10 11:39:44;;;;;;;;;;;1.30;46.00;;;;;;5127482;27;19931;-75
2024/01/10 11:42:10;;;;;;;;;;;1.30;45.80;;;;;;5114668;27;20375;-75
2024/01/10 11:44:46;;;;;;;;;;;1.30;46.10;;;;;;5115438;28;19954;-75
2024/01/10 11:47:13;;;;;;;;;;;1.30;46.60;;;;;;5115467;28;20292;-76
2024/01/10 11:49:38;;;;;;;;;;;1.30;46.40;;;;;;5133627;28;20337;-75
2024/01/10 11:52:04;;;;;;;;;;;1.30;45.50;;;;;;5115621;28;19912;-76
2024/01/10 11:54:37;;;;;;;;;;;1.30;45.70;;;;;;5115382;28;19917;-76
2024/01/10 11:57:03;;;;;;;;;;;1.30;45.80;;;;;;5133735;28;19911;-75
2024/01/10 11:59:30;;;;;;;;;;;1.30;46.00;;;;;;5115164;28;19918;-75
2024/01/10 12:01:55;;;;;;;;;;;1.30;46.20;;;;;;5116065;28;19968;-76
2024/01/10 12:04:21;;;;;;;;;;;1.40;46.60;;;;;;5115595;28;20372;-76
2024/01/10 12:06:47;;;;;;;;;;;1.40;46.10;;;;;;5134518;28;19967;-75
2024/01/10 12:09:14;;;;;;;;;;;1.40;46.10;;;;;;5134719;28;20310;-75
2024/01/10 12:11:41;;;;;;;;;;;1.40;46.40;;;;;;5134406;28;19912;-76
2024/01/10 12:14:08;;;;;;;;;;;1.40;46.50;;;;;;5116036;28;19919;-75
2024/01/10 12:16:33;;;;;;;;;;;1.40;46.40;;;;;;5117348;27;20044;-75
2024/01/10 12:18:59;;;;;;;;;;;1.40;46.30;;;;;;5136937;27;19998;-75
2024/01/10 12:21:24;;;;;;;;;;;1.50;46.10;;;;;;5119424;27;20409;-75
2024/01/10 12:23:51;;;;;;;;;;;1.50;46.50;;;;;;5120454;27;19914;-75
2024/01/10 12:26:17;;;;;;;;;;;1.50;47.00;;;;;;5120792;27;20006;-76
2024/01/10 12:28:53;;;;;;;;;;;1.50;47.10;;;;;;5139500;27;19962;-76
2024/01/10 12:31:18;;;;;;;;;;;1.60;46.80;;;;;;5139525;27;19917;-76
2024/01/10 12:33:44;;;;;;;;;;;1.70;47.30;;;;;;5120521;27;20005;-76
2024/01/10 12:36:10;;;;;;;;;;;1.60;47.30;;;;;;5119848;27;19915;-76
2024/01/10 12:38:36;;;;;;;;;;;1.60;46.80;;;;;;5138619;27;19920;-75
2024/01/10 12:41:01;;;;;;;;;;;1.60;47.00;;;;;;5138726;27;19960;-76
2024/01/10 12:43:27;;;;;;;;;;;1.60;47.00;;;;;;5119978;27;19915;-75
2024/01/10 12:46:12;;;;;;;;;;;1.60;47.50;;;;;;5137748;27;19914;-75
2024/01/10 12:48:41;;;;;;;;;;;1.60;47.60;;;;;;5119344;27;20477;-76
2024/01/10 12:51:09;;;;;;;;;;;1.60;46.30;;;;;;5138417;27;19946;-76
2024/01/10 12:53:36;;;;;;;;;;;1.60;46.80;;;;;;5137908;27;19915;-75
2024/01/10 12:56:02;;;;;;;;;;;1.60;47.30;;;;;;5137570;27;20435;-76
2024/01/10 12:58:28;;;;;;;;;;;1.60;47.40;;;;;;5138089;27;19912;-77
2024/01/10 13:00:53;;;;;;;;;;;1.60;47.20;;;;;;5120783;27;19919;-76
2024/01/10 13:03:19;;;;;;;;;;;1.60;47.30;;;;;;5136522;27;20298;-75
2024/01/10 13:05:45;;;;;;;;;;;1.60;47.50;;;;;;5136225;27;20430;-76
2024/01/10 13:08:11;;;;;;;;;;;1.60;47.70;;;;;;5135911;27;19911;-76
2024/01/10 13:10:38;;;;;;;;;;;1.60;47.50;;;;;;5117531;27;19918;-76
2024/01/10 13:13:03;;;;;;;;;;;1.60;47.70;;;;;;5136275;27;19914;-75
2024/01/10 13:15:29;;;;;;;;;;;1.60;47.90;;;;;;5117617;27;19911;-76
2024/01/10 13:17:55;;;;;;;;;;;1.60;48.00;;;;;;5117803;27;19983;-75
2024/01/10 13:20:21;;;;;;;;;;;1.60;48.30;;;;;;5117898;27;20376;-76
2024/01/10 13:22:46;;;;;;;;;;;1.60;48.40;;;;;;5136207;27;19912;-75
2024/01/10 13:25:12;;;;;;;;;;;1.60;48.60;;;;;;5117985;27;19947;-75
2024/01/10 13:27:38;;;;;;;;;;;1.60;49.30;;;;;;5135211;27;19956;-75
2024/01/10 13:30:05;;;;;;;;;;;1.60;49.40;;;;;;5136519;27;19911;-76
2024/01/10 13:32:31;;;;;;;;;;;1.60;49.60;;;;;;5135984;27;20272;-75
2024/01/10 13:34:56;;;;;;;;;;;1.60;49.20;;;;;;5136139;27;20496;-76
2024/01/10 13:37:22;;;;;;;;;;;1.60;49.30;;;;;;5135912;27;20399;-75
2024/01/10 13:39:48;;;;;;;;;;;1.60;49.30;;;;;;5135648;27;20044;-76
2024/01/10 13:42:14;;;;;;;;;;;1.50;49.40;;;;;;5117612;27;19980;-76
2024/01/10 13:44:39;;;;;;;;;;;1.50;50.20;;;;;;5117627;27;20361;-76
2024/01/10 13:47:06;;;;;;;;;;;1.40;50.60;;;;;;5117652;27;19912;-77
2024/01/10 13:49:31;;;;;;;;;;;1.40;50.90;;;;;;5117405;27;19908;-76
2024/01/10 13:51:57;;;;;;;;;;;1.40;51.10;;;;;;5136120;27;19999;-75
2024/01/10 13:54:22;;;;;;;;;;;1.40;51.40;;;;;;5135857;27;19916;-75
2024/01/10 13:56:48;;;;;;;;;;;1.40;51.50;;;;;;5135958;27;19908;-76
2024/01/10 13:59:13;;;;;;;;;;;1.40;51.60;;;;;;5135593;27;19930;-76
2024/01/10 14:01:39;;;;;;;;;;;1.40;51.80;;;;;;5117244;27;19907;-76
2024/01/10 14:04:05;;;;;;;;;;;1.40;52.40;;;;;;5135843;27;19917;-75
2024/01/10 14:06:31;;;;;;;;;;;1.40;52.80;;;;;;5117316;27;19907;-76
2024/01/10 14:08:57;;;;;;;;;;;1.30;52.70;;;;;;5117165;27;19911;-76
2024/01/10 14:11:24;;;;;;;;;;;1.20;52.70;;;;;;5135653;27;19908;-76
2024/01/10 14:13:49;;;;;;;;;;;1.20;52.70;;;;;;5116921;27;20033;-76
2024/01/10 14:16:15;;;;;;;;;;;1.20;52.80;;;;;;5135948;27;19943;-76